Time;durP1;ratioP1;P1;durP2;ratioP2;P2;SDS_P1;SDS_P2;PMS_P1;PMS_P2;Temp;Humidity;BMP_temperature;BMP_pressure;BME280_temperature;BME280_humidity;BME280_pressure;Samples;Min_cycle;Max_cycle;Signal;HPM_P1;HPM_P2
2022/07/02 00:02:25;;;;;;;13.07;11.27;;;;;;;14.08;94.54;102121.34;4949918;29;20644;-75
2022/07/02 00:04:58;;;;;;;12.47;11.27;;;;;;;14.06;93.92;102119.56;4950952;28;20196;-75
2022/07/02 00:07:26;;;;;;;12.27;10.83;;;;;;;14.00;94.04;102122.00;4951028;28;20205;-74
2022/07/02 00:09:54;;;;;;;12.23;11.00;;;;;;;13.91;94.17;102119.19;4950047;29;20236;-75
2022/07/02 00:12:19;;;;;;;12.50;10.53;;;;;;;13.89;94.73;102124.28;4981891;28;20256;-75
2022/07/02 00:14:50;;;;;;;12.97;11.07;;;;;;;13.88;95.03;102122.56;4950042;29;20184;-75
2022/07/02 00:17:16;;;;;;;13.33;11.47;;;;;;;13.85;94.61;102122.47;4950988;28;20633;-75
2022/07/02 00:19:42;;;;;;;13.53;10.97;;;;;;;13.81;94.67;102127.50;4951208;28;20699;-75
2022/07/02 00:22:09;;;;;;;14.77;11.27;;;;;;;13.80;95.08;102123.16;4950539;28;20209;-75
2022/07/02 00:24:39;;;;;;;15.43;11.87;;;;;;;13.93;94.96;102117.50;4950123;28;20193;-75
2022/07/02 00:27:06;;;;;;;12.90;11.37;;;;;;;13.90;95.32;102113.16;4965711;28;20213;-75
2022/07/02 00:29:38;;;;;;;12.13;10.77;;;;;;;13.85;94.75;102116.47;4949962;28;20208;-74
2022/07/02 00:32:04;;;;;;;14.03;10.67;;;;;;;13.74;94.62;102116.16;4956952;28;20188;-75
2022/07/02 00:34:32;;;;;;;12.63;11.00;;;;;;;13.76;95.12;102108.50;4973970;28;20184;-75
2022/07/02 00:36:59;;;;;;;15.27;11.17;;;;;;;13.76;95.07;102099.03;4974587;28;20229;-74
2022/07/02 00:39:24;;;;;;;13.13;11.40;;;;;;;13.75;94.77;102106.72;4974214;28;20212;-74
2022/07/02 00:41:51;;;;;;;14.10;11.10;;;;;;;13.73;95.24;102109.28;4974697;28;20236;-75
2022/07/02 00:44:18;;;;;;;14.63;13.03;;;;;;;13.81;95.83;102109.47;4973943;28;20196;-75
2022/07/02 00:46:45;;;;;;;13.60;12.00;;;;;;;13.83;96.44;102116.41;4974433;28;20212;-75
2022/07/02 00:49:12;;;;;;;14.90;12.93;;;;;;;13.84;96.44;102107.84;4974436;28;20188;-75
2022/07/02 00:51:38;;;;;;;17.17;12.73;;;;;;;13.82;96.42;102109.53;4954301;28;20193;-75
2022/07/02 00:54:03;;;;;;;15.07;11.90;;;;;;;13.76;96.08;102111.06;4969512;28;20209;-75
2022/07/02 00:56:29;;;;;;;13.10;11.77;;;;;;;13.72;96.28;102111.81;4953650;28;20299;-75
2022/07/02 00:58:55;;;;;;;13.70;12.30;;;;;;;13.63;95.98;102116.72;4954495;28;20263;-75
2022/07/02 01:01:20;;;;;;;13.93;12.07;;;;;;;13.62;95.49;102112.41;4953732;28;20212;-74
2022/07/02 01:03:48;;;;;;;12.37;10.87;;;;;;;13.48;95.53;102119.72;4962343;28;20665;-75
2022/07/02 01:06:17;;;;;;;13.63;11.23;;;;;;;13.42;94.95;102118.66;4973453;28;20244;-74
2022/07/02 01:11:30;;;;;;;13.43;10.80;;;;;;;13.34;94.79;102118.47;4973644;28;20172;-74
2022/07/02 01:13:56;;;;;;;12.37;10.27;;;;;;;13.29;94.28;102114.00;5004412;28;20188;-75
2022/07/02 01:16:22;;;;;;;15.83;12.43;;;;;;;13.40;95.49;102115.19;4973644;28;20212;-74
2022/07/02 01:18:48;;;;;;;15.87;12.63;;;;;;;13.39;95.88;102113.47;4987891;28;20188;-75
2022/07/02 01:21:14;;;;;;;12.83;11.20;;;;;;;13.36;95.27;102121.06;4972919;28;20204;-75
2022/07/02 01:23:39;;;;;;;12.17;10.87;;;;;;;13.24;95.24;102119.03;4973049;28;20191;-75
2022/07/02 01:26:05;;;;;;;12.77;11.07;;;;;;;13.21;94.89;102124.06;4973585;28;20251;-75
2022/07/02 01:28:30;;;;;;;14.20;11.17;;;;;;;13.15;94.88;102126.47;4973522;28;20180;-75
2022/07/02 01:30:56;;;;;;;12.00;10.10;;;;;;;13.17;95.00;102124.81;4973047;28;20712;-75
2022/07/02 01:33:22;;;;;;;12.63;11.00;;;;;;;13.17;95.00;102132.53;4973289;28;20712;-75
2022/07/02 01:35:47;;;;;;;13.07;11.70;;;;;;;13.17;94.92;102137.66;4972697;28;20189;-75
2022/07/02 01:38:13;;;;;;;12.47;10.90;;;;;;;13.11;95.45;102136.63;4973275;28;20187;-74
2022/07/02 01:40:38;;;;;;;12.77;10.93;;;;;;;13.03;95.13;102140.66;4972695;28;20185;-73
2022/07/02 01:43:04;;;;;;;13.20;10.57;;;;;;;13.03;94.98;102135.53;5003655;28;20644;-75
2022/07/02 01:45:29;;;;;;;12.97;10.80;;;;;;;12.99;95.54;102138.81;4973087;28;20189;-75
2022/07/02 01:47:55;;;;;;;12.40;10.47;;;;;;;12.96;95.51;102134.44;4972725;28;20322;-75
2022/07/02 01:50:20;;;;;;;14.47;10.53;;;;;;;12.98;95.55;102147.38;4967880;28;20309;-75
2022/07/02 01:52:46;;;;;;;14.00;10.50;;;;;;;12.95;95.49;102140.41;4952966;28;20227;-74
2022/07/02 01:55:11;;;;;;;11.90;10.53;;;;;;;12.86;95.02;102148.69;4953699;28;20284;-74
2022/07/02 01:57:37;;;;;;;15.63;10.47;;;;;;;12.83;95.40;102153.75;4952958;28;20272;-73
2022/07/02 02:00:08;;;;;;;13.53;10.23;;;;;;;12.79;95.24;102151.03;4953296;28;20292;-73
2022/07/02 02:02:34;;;;;;;12.33;10.07;;;;;;;12.80;95.22;102151.09;4952876;29;20205;-74
2022/07/02 02:04:59;;;;;;;12.43;10.67;;;;;;;12.78;94.92;102159.56;4953159;28;20240;-74
2022/07/02 02:07:25;;;;;;;11.57;10.37;;;;;;;12.76;95.15;102154.38;4953344;28;20229;-74
2022/07/02 02:09:51;;;;;;;11.83;10.37;;;;;;;12.72;95.37;102161.97;4952918;28;20205;-74
2022/07/02 02:12:16;;;;;;;12.37;11.07;;;;;;;12.63;95.13;102162.50;4953200;28;20182;-74
2022/07/02 02:14:42;;;;;;;11.93;9.50;;;;;;;12.61;94.88;102168.44;4951601;29;20713;-73
2022/07/02 02:17:07;;;;;;;14.40;10.23;;;;;;;12.58;94.91;102171.78;4953283;29;20205;-73
2022/07/02 02:19:33;;;;;;;12.77;10.50;;;;;;;12.61;94.71;102176.13;4952865;28;20196;-74
2022/07/02 02:21:58;;;;;;;12.53;10.60;;;;;;;12.61;95.49;102182.16;4952800;28;20237;-73
2022/07/02 02:24:24;;;;;;;12.27;10.97;;;;;;;12.61;95.34;102186.41;4984077;28;20177;-73
2022/07/02 02:26:50;;;;;;;15.23;10.67;;;;;;;12.53;95.86;102190.47;4952449;28;20201;-74
2022/07/02 02:29:15;;;;;;;11.57;10.23;;;;;;;12.50;95.59;102192.91;4952936;28;20220;-74
2022/07/02 02:31:41;;;;;;;12.30;9.30;;;;;;;12.47;95.74;102192.81;4952393;28;20204;-73
2022/07/02 02:34:06;;;;;;;13.20;10.33;;;;;;;12.44;95.44;102183.28;4952747;28;20192;-74
2022/07/02 02:36:31;;;;;;;10.70;9.67;;;;;;;12.46;95.45;102185.94;4952187;28;20245;-74
2022/07/02 02:38:57;;;;;;;11.47;10.20;;;;;;;12.42;95.69;102187.53;4952695;28;20267;-74
2022/07/02 02:41:22;;;;;;;13.03;10.00;;;;;;;12.38;95.81;102188.25;4952687;28;20221;-74
2022/07/02 02:43:48;;;;;;;12.00;9.70;;;;;;;12.37;95.87;102186.50;4952082;28;20186;-74
2022/07/02 02:46:13;;;;;;;11.20;9.97;;;;;;;12.39;95.54;102191.69;4951501;29;20264;-73
2022/07/02 02:48:39;;;;;;;12.00;9.53;;;;;;;12.32;95.43;102192.28;4952187;28;20203;-74
2022/07/02 02:51:06;;;;;;;12.67;9.73;;;;;;;12.30;95.34;102192.25;4952445;28;20829;-73
2022/07/02 02:53:32;;;;;;;11.63;10.00;;;;;;;12.32;95.64;102197.44;4951934;28;20193;-73
2022/07/02 02:55:58;;;;;;;11.50;9.53;;;;;;;12.30;95.51;102204.22;4952214;28;20189;-74
2022/07/02 02:58:24;;;;;;;13.13;9.30;;;;;;;12.23;95.58;102203.16;4952580;28;20240;-74
2022/07/02 03:00:51;;;;;;;11.77;9.30;;;;;;;12.26;95.87;102207.50;4951967;28;20248;-74
2022/07/02 03:03:16;;;;;;;13.67;11.20;;;;;;;12.36;96.03;102209.56;4952352;28;20638;-74
2022/07/02 03:05:41;;;;;;;14.00;11.80;;;;;;;12.47;97.04;102210.78;4951549;28;20181;-74
2022/07/02 03:08:07;;;;;;;16.40;12.73;;;;;;;12.53;97.41;102213.59;4952399;28;20638;-74
2022/07/02 03:10:32;;;;;;;20.90;13.53;;;;;;;12.58;97.46;102219.75;4951829;28;20200;-74
2022/07/02 03:12:58;;;;;;;17.63;13.13;;;;;;;12.58;97.54;102223.16;4952210;28;20232;-74
2022/07/02 03:15:24;;;;;;;14.83;12.20;;;;;;;12.49;96.97;102225.44;4952290;28;20228;-73
2022/07/02 03:17:50;;;;;;;17.17;13.27;;;;;;;12.51;97.34;102234.09;4951586;28;20205;-73
2022/07/02 03:20:15;;;;;;;15.93;12.20;;;;;;;12.58;97.58;102233.44;4952096;28;20267;-73
2022/07/02 03:22:40;;;;;;;18.43;12.57;;;;;;;12.59;97.52;102232.63;4951295;28;20224;-74
2022/07/02 03:25:07;;;;;;;21.53;12.23;;;;;;;12.60;97.47;102233.50;4952164;28;20545;-74
2022/07/02 03:27:33;;;;;;;13.47;12.07;;;;;;;12.59;97.75;102237.75;4951503;28;20930;-74
2022/07/02 03:29:59;;;;;;;14.33;12.93;;;;;;;12.61;97.60;102232.69;4951911;28;20204;-74
2022/07/02 03:32:25;;;;;;;13.83;12.10;;;;;;;12.63;97.29;102238.75;4951619;28;20264;-74
2022/07/02 03:34:54;;;;;;;14.97;12.53;;;;;;;12.67;96.60;102233.75;4982446;28;20682;-73
2022/07/02 03:37:23;;;;;;;15.10;12.00;;;;;;;12.69;97.12;102234.69;4982509;28;20710;-74
2022/07/02 03:39:48;;;;;;;15.53;11.37;;;;;;;12.61;96.50;102218.16;4982159;28;20562;-74
2022/07/02 03:42:14;;;;;;;13.10;11.80;;;;;;;12.64;96.71;102238.81;4951826;28;20209;-74
2022/07/02 03:44:40;;;;;;;16.13;11.80;;;;;;;12.70;96.42;102235.56;4951226;28;20186;-73
2022/07/02 03:47:05;;;;;;;16.33;12.23;;;;;;;12.72;96.05;102244.22;4951742;28;20793;-74
2022/07/02 03:49:31;;;;;;;15.93;12.57;;;;;;;12.72;96.77;102246.78;4951450;28;20244;-74
2022/07/02 03:51:56;;;;;;;13.43;12.03;;;;;;;12.77;96.37;102242.66;4951324;28;20205;-74
2022/07/02 03:54:22;;;;;;;14.80;11.47;;;;;;;12.80;96.84;102245.31;4951490;28;20224;-74
2022/07/02 03:56:47;;;;;;;16.43;11.90;;;;;;;12.84;96.67;102247.16;4951004;28;20296;-74
2022/07/02 03:59:13;;;;;;;13.80;12.13;;;;;;;12.84;96.75;102240.34;4951707;28;20289;-74
2022/07/02 04:01:38;;;;;;;15.73;12.23;;;;;;;12.90;96.38;102234.53;4950849;29;20279;-74
2022/07/02 04:04:04;;;;;;;16.53;11.97;;;;;;;12.93;96.29;102246.59;4958613;28;20544;-73
2022/07/02 04:06:29;;;;;;;17.40;12.00;;;;;;;12.95;96.76;102230.41;4965195;28;20269;-74
2022/07/02 04:08:55;;;;;;;14.83;11.83;;;;;;;12.99;96.44;102240.00;4951312;29;20258;-74
2022/07/02 04:11:20;;;;;;;15.07;11.43;;;;;;;12.98;96.34;102245.94;4951588;28;20284;-74
2022/07/02 04:13:46;;;;;;;14.80;11.97;;;;;;;13.04;96.67;102245.28;4950774;28;20193;-73
2022/07/02 04:16:11;;;;;;;17.23;12.67;;;;;;;13.10;96.20;102251.50;4950426;29;20213;-74
2022/07/02 04:18:36;;;;;;;16.77;12.73;;;;;;;13.17;96.29;102257.69;4951041;29;20548;-74
2022/07/02 04:21:02;;;;;;;17.73;13.20;;;;;;;13.21;96.57;102257.84;4951483;29;20193;-74
2022/07/02 04:23:27;;;;;;;15.70;12.93;;;;;;;13.26;96.34;102255.41;4950780;28;20213;-74
2022/07/02 04:25:53;;;;;;;20.03;12.47;;;;;;;13.32;95.84;102256.47;4951221;29;20243;-74
2022/07/02 04:28:19;;;;;;;14.53;12.50;;;;;;;13.37;96.01;102254.03;4951375;29;20189;-74
2022/07/02 04:30:44;;;;;;;14.63;12.20;;;;;;;13.43;96.01;102257.66;4950893;28;20548;-73
2022/07/02 04:33:10;;;;;;;17.50;11.73;;;;;;;13.49;95.69;102249.28;4951246;28;20227;-74
2022/07/02 04:35:35;;;;;;;13.77;12.40;;;;;;;13.55;95.53;102254.59;4950694;28;20189;-74
2022/07/02 04:38:01;;;;;;;17.47;12.07;;;;;;;13.62;95.72;102261.69;4951146;29;20232;-74
2022/07/02 04:40:26;;;;;;;15.23;11.53;;;;;;;13.63;94.82;102255.72;4950784;29;20192;-74
2022/07/02 04:42:52;;;;;;;13.07;11.60;;;;;;;13.66;94.65;102259.22;4950731;29;20228;-74
2022/07/02 04:45:17;;;;;;;13.97;10.90;;;;;;;13.76;94.00;102255.25;4951320;29;20201;-74
2022/07/02 04:47:43;;;;;;;12.23;10.30;;;;;;;13.78;94.04;102264.75;4965392;28;20268;-74
2022/07/02 04:50:08;;;;;;;13.57;11.60;;;;;;;13.86;93.36;102260.69;4951082;28;20185;-74
2022/07/02 04:52:34;;;;;;;13.50;10.97;;;;;;;13.88;92.83;102265.88;4950876;28;20768;-74
2022/07/02 04:54:59;;;;;;;13.27;11.07;;;;;;;14.01;93.40;102267.97;4951272;28;20545;-74
2022/07/02 04:57:25;;;;;;;15.73;11.17;;;;;;;14.07;93.73;102268.13;4950384;28;20724;-74
2022/07/02 04:59:50;;;;;;;11.20;9.93;;;;;;;14.13;93.00;102278.63;4950988;29;20189;-74
2022/07/02 05:02:16;;;;;;;13.20;10.23;;;;;;;14.22;92.31;102282.34;4950919;29;20224;-74
2022/07/02 05:04:41;;;;;;;13.20;9.83;;;;;;;14.31;92.25;102279.19;4951426;28;20205;-75
2022/07/02 05:07:07;;;;;;;11.20;9.87;;;;;;;14.37;90.83;102282.78;4950784;29;20215;-74
2022/07/02 05:09:32;;;;;;;10.30;9.13;;;;;;;14.44;90.63;102284.69;4950301;29;20200;-74
2022/07/02 05:11:58;;;;;;;12.20;8.80;;;;;;;14.51;90.72;102278.00;4951216;29;20224;-74
2022/07/02 05:14:23;;;;;;;10.27;9.20;;;;;;;14.61;90.44;102288.59;4950221;29;20189;-74
2022/07/02 05:16:49;;;;;;;11.07;9.20;;;;;;;14.67;89.47;102281.00;4950200;29;20328;-74
2022/07/02 05:19:15;;;;;;;11.93;9.30;;;;;;;14.81;89.39;102284.81;4953693;28;20196;-75
2022/07/02 05:21:42;;;;;;;10.30;8.77;;;;;;;14.83;89.15;102283.13;4953736;29;20209;-74
2022/07/02 05:24:07;;;;;;;10.53;8.73;;;;;;;14.94;88.37;102284.28;4985355;28;20192;-74
2022/07/02 05:26:33;;;;;;;13.53;8.60;;;;;;;15.02;88.63;102287.06;4984753;28;20216;-74
2022/07/02 05:28:58;;;;;;;10.50;8.90;;;;;;;15.16;88.40;102286.56;4954202;28;20725;-74
2022/07/02 05:31:24;;;;;;;9.47;7.97;;;;;;;15.25;87.79;102294.53;4954021;28;20902;-75
2022/07/02 05:33:49;;;;;;;9.87;8.00;;;;;;;15.32;88.05;102301.56;4954331;29;20717;-75
2022/07/02 05:36:15;;;;;;;8.90;8.00;;;;;;;15.44;86.67;102291.56;4985217;28;20289;-76
2022/07/02 05:38:40;;;;;;;14.50;7.57;;;;;;;15.40;86.96;102302.66;4953523;29;20251;-73
2022/07/02 05:41:07;;;;;;;10.43;7.57;;;;;;;15.58;86.96;102297.03;4937727;28;21553;-73
2022/07/02 05:43:32;;;;;;;11.57;7.60;;;;;;;15.61;85.56;102297.97;4952144;28;20263;-73
2022/07/02 05:45:58;;;;;;;9.37;7.30;;;;;;;15.70;85.63;102305.91;4953387;28;20193;-74
2022/07/02 05:48:23;;;;;;;8.97;7.30;;;;;;;15.83;85.44;102297.59;4952839;28;20200;-72
2022/07/02 05:50:49;;;;;;;9.57;7.57;;;;;;;15.81;85.10;102301.00;4953528;28;20276;-72
2022/07/02 05:53:14;;;;;;;11.00;7.23;;;;;;;16.09;85.08;102311.06;4953044;29;20264;-73
2022/07/02 05:55:40;;;;;;;9.03;6.97;;;;;;;16.27;84.46;102314.03;4953137;29;20288;-75
2022/07/02 05:58:05;;;;;;;10.03;6.90;;;;;;;16.38;83.87;102307.34;4952096;29;20263;-72
2022/07/02 06:00:34;;;;;;;10.27;6.77;;;;;;;16.48;82.75;102311.91;4952931;28;20203;-73
2022/07/02 06:02:59;;;;;;;9.83;6.33;;;;;;;16.51;82.54;102309.34;4953407;28;20213;-75
2022/07/02 06:08:09;;;;;;;7.57;6.37;;;;;;;16.70;82.35;102314.91;4953580;29;20165;-76
2022/07/02 06:10:34;;;;;;;6.13;5.53;;;;;;;16.88;81.52;102312.63;4953619;29;20597;-75
2022/07/02 06:12:59;;;;;;;6.30;5.70;;;;;;;16.95;81.62;102314.47;4952833;28;20642;-74
2022/07/02 06:15:25;;;;;;;5.93;5.43;;;;;;;17.09;81.13;102312.97;4953066;28;20189;-75
2022/07/02 06:17:50;;;;;;;7.07;5.30;;;;;;;17.12;79.51;102323.41;4952611;28;20761;-74
2022/07/02 06:20:16;;;;;;;6.10;4.90;;;;;;;17.22;79.06;102319.25;4951409;29;20267;-74
2022/07/02 06:22:41;;;;;;;6.33;4.50;;;;;;;17.41;76.50;102329.09;4952610;28;20246;-76
2022/07/02 06:25:08;;;;;;;6.03;4.93;;;;;;;17.54;76.74;102339.66;4951876;29;20196;-75
2022/07/02 06:27:34;;;;;;;8.07;4.67;;;;;;;17.69;76.39;102333.84;4967833;28;20211;-75
2022/07/02 06:30:00;;;;;;;6.53;4.77;;;;;;;17.81;77.12;102339.16;4966537;28;20252;-75
2022/07/02 06:32:26;;;;;;;7.33;4.70;;;;;;;17.96;76.61;102336.81;4952906;28;20197;-75
2022/07/02 06:34:51;;;;;;;7.57;4.10;;;;;;;17.87;75.27;102347.06;4950546;29;20244;-74
2022/07/02 06:37:17;;;;;;;7.43;3.90;;;;;;;17.87;75.30;102339.28;4952306;28;20564;-74
2022/07/02 06:39:42;;;;;;;4.60;3.50;;;;;;;18.11;74.13;102340.47;4952817;28;20189;-75
2022/07/02 06:42:20;;;;;;;4.63;3.13;;;;;;;18.18;73.01;102344.00;4951136;29;20232;-75
2022/07/02 06:44:51;;;;;;;3.17;2.87;;;;;;;18.11;70.84;102340.47;4967346;28;20193;-74
2022/07/02 06:47:17;;;;;;;4.20;2.63;;;;;;;18.57;71.35;102337.56;4952084;29;20216;-75
2022/07/02 06:49:44;;;;;;;5.10;3.27;;;;;;;18.77;71.03;102335.19;4983252;28;20308;-75
2022/07/02 06:52:10;;;;;;;5.33;3.30;;;;;;;18.63;70.84;102337.66;4952276;28;20858;-74
2022/07/02 06:54:36;;;;;;;4.63;3.47;;;;;;;18.72;69.83;102336.88;4952511;28;20189;-74
2022/07/02 06:57:03;;;;;;;3.47;2.80;;;;;;;18.91;69.38;102336.19;4952402;28;20212;-75
2022/07/02 06:59:29;;;;;;;5.07;2.93;;;;;;;19.17;70.25;102327.75;4983473;28;20189;-75
2022/07/02 07:01:54;;;;;;;7.90;3.00;;;;;;;19.11;68.51;102340.72;4952234;28;20208;-75
2022/07/02 07:04:20;;;;;;;4.93;2.50;;;;;;;19.28;66.63;102344.34;4951582;28;20725;-75
2022/07/02 07:09:10;;;;;;;4.73;2.63;;;;;;;19.43;66.67;102339.28;4950502;29;20256;-75
2022/07/02 07:11:36;;;;;;;6.63;2.60;;;;;;;19.48;67.31;102341.91;4950921;28;20208;-75
2022/07/02 07:14:02;;;;;;;5.13;2.53;;;;;;;19.41;66.37;102348.81;4951555;28;20193;-75
2022/07/02 07:16:27;;;;;;;6.40;2.50;;;;;;;19.61;64.73;102338.50;4951851;28;20209;-75
2022/07/02 07:19:00;;;;;;;4.50;2.20;;;;;;;19.87;64.93;102344.75;4982818;28;20268;-75
2022/07/02 07:21:25;;;;;;;2.63;2.17;;;;;;;19.87;63.58;102339.56;4951758;28;20215;-74
2022/07/02 07:23:51;;;;;;;2.93;2.00;;;;;;;19.83;62.57;102346.47;4952227;28;20616;-74
2022/07/02 07:26:16;;;;;;;4.07;1.80;;;;;;;19.86;61.99;102343.88;4966635;28;20213;-74
2022/07/02 07:28:42;;;;;;;6.20;2.00;;;;;;;20.24;63.47;102344.09;4952528;28;20200;-74
2022/07/02 07:31:07;;;;;;;3.93;1.70;;;;;;;20.22;61.15;102345.84;4950255;29;20193;-74
2022/07/02 07:33:33;;;;;;;4.07;1.70;;;;;;;20.28;60.06;102343.25;4952110;28;20208;-74
2022/07/02 07:35:59;;;;;;;2.77;1.10;;;;;;;20.55;58.78;102346.81;4952267;29;20190;-75
2022/07/02 07:38:24;;;;;;;5.53;1.70;;;;;;;20.40;59.14;102341.56;4950385;29;20185;-74
2022/07/02 07:40:50;;;;;;;3.50;1.50;;;;;;;20.43;58.42;102340.69;4951548;28;20200;-75
2022/07/02 07:43:15;;;;;;;3.30;1.20;;;;;;;20.70;56.53;102332.97;4950797;28;20213;-74
2022/07/02 07:45:41;;;;;;;2.60;1.20;;;;;;;20.67;56.61;102333.81;4952079;28;20709;-74
2022/07/02 07:48:06;;;;;;;2.60;1.40;;;;;;;20.76;55.27;102341.66;4951438;28;20716;-75
2022/07/02 07:50:32;;;;;;;3.73;1.80;;;;;;;21.34;55.83;102337.38;4982500;28;20189;-73
2022/07/02 07:52:57;;;;;;;4.90;1.40;;;;;;;21.31;54.60;102347.81;4951546;29;20189;-74
2022/07/02 07:55:23;;;;;;;3.13;1.37;;;;;;;21.78;53.91;102336.47;4951219;29;20745;-74
2022/07/02 07:57:49;;;;;;;2.23;1.17;;;;;;;22.10;54.93;102338.97;4951578;28;20694;-74
2022/07/02 08:00:15;;;;;;;2.97;1.20;;;;;;;22.26;53.63;102328.47;4951022;28;20296;-74
2022/07/02 08:02:40;;;;;;;4.87;1.60;;;;;;;21.58;53.43;102335.63;4951712;29;20216;-74
2022/07/02 08:05:06;;;;;;;4.27;1.50;;;;;;;21.13;52.57;102335.66;4951347;28;20292;-74
2022/07/02 08:07:40;;;;;;;4.00;1.40;;;;;;;21.87;52.57;102331.22;4951453;28;20256;-73
2022/07/02 08:10:07;;;;;;;4.00;1.43;;;;;;;21.45;52.43;102353.88;4950741;28;20197;-74
2022/07/02 08:12:33;;;;;;;3.57;1.47;;;;;;;21.31;53.06;102347.81;4950887;28;20189;-74
2022/07/02 08:14:59;;;;;;;5.30;1.77;;;;;;;21.38;53.06;102350.41;4966024;28;20268;-73
2022/07/02 08:17:26;;;;;;;3.97;1.57;;;;;;;22.03;53.00;102340.72;4949367;29;20345;-74
2022/07/02 08:19:51;;;;;;;4.37;1.60;;;;;;;22.11;52.01;102344.19;4951112;28;20299;-74
2022/07/02 08:22:19;;;;;;;2.93;1.40;;;;;;;22.06;50.26;102340.72;4950616;28;20312;-74
2022/07/02 08:24:45;;;;;;;5.30;1.40;;;;;;;22.00;52.23;102342.50;4950844;28;20330;-74
2022/07/02 08:27:11;;;;;;;5.07;1.50;;;;;;;22.40;51.12;102341.47;4950640;28;20259;-74
2022/07/02 08:29:37;;;;;;;3.93;1.50;;;;;;;22.97;50.89;102345.50;4950865;28;20233;-74
2022/07/02 08:32:04;;;;;;;4.17;1.57;;;;;;;22.98;49.47;102339.38;4952118;28;20255;-74
2022/07/02 08:34:31;;;;;;;2.30;1.40;;;;;;;22.26;48.51;102343.28;4949952;28;20569;-74
2022/07/02 08:36:57;;;;;;;2.53;1.33;;;;;;;23.02;49.02;102335.88;4951238;28;20204;-74
2022/07/02 08:39:22;;;;;;;3.47;1.30;;;;;;;23.48;47.89;102337.25;4949269;29;20686;-74
2022/07/02 08:41:49;;;;;;;2.22;1.17;;;;;;;23.75;47.61;102336.97;4950868;29;20213;-74
2022/07/02 08:44:17;;;;;;;2.20;1.20;;;;;;;23.96;47.65;102342.88;4950436;29;20193;-74
2022/07/02 08:46:45;;;;;;;4.90;1.55;;;;;;;23.81;46.01;102344.75;4951649;28;20689;-74
2022/07/02 08:49:11;;;;;;;3.95;1.45;;;;;;;23.59;45.12;102349.34;4950262;29;20200;-71
2022/07/02 08:51:37;;;;;;;3.10;1.23;;;;;;;23.13;46.09;102342.75;4950966;29;20493;-74
2022/07/02 08:54:02;;;;;;;4.30;1.30;;;;;;;23.16;46.13;102344.47;4954043;28;20204;-74
2022/07/02 08:56:31;;;;;;;2.97;1.23;;;;;;;23.01;45.29;102342.84;4954232;28;20244;-74
2022/07/02 08:58:58;;;;;;;4.00;1.73;;;;;;;22.46;47.62;102345.84;4937293;28;20240;-73
2022/07/02 09:01:24;;;;;;;3.80;1.20;;;;;;;22.85;46.38;102353.41;4989033;28;20557;-75
2022/07/02 09:03:52;;;;;;;3.10;1.30;;;;;;;22.83;44.23;102349.97;4963065;28;20243;-76
2022/07/02 09:06:19;;;;;;;4.67;1.47;;;;;;;22.93;45.25;102355.09;4969186;28;20219;-75
2022/07/02 09:08:45;;;;;;;2.60;1.20;;;;;;;22.81;45.36;102349.09;4954403;28;20193;-76
2022/07/02 09:11:11;;;;;;;3.43;1.20;;;;;;;23.17;44.85;102348.81;4953503;28;20196;-76
2022/07/02 09:13:38;;;;;;;3.63;1.30;;;;;;;23.48;45.94;102345.94;4953788;28;20193;-76
2022/07/02 09:16:05;;;;;;;3.47;1.20;;;;;;;23.85;46.05;102336.84;4954133;29;20221;-76
2022/07/02 09:18:31;;;;;;;4.13;1.23;;;;;;;23.70;44.64;102342.25;4953641;28;20254;-75
2022/07/02 09:20:56;;;;;;;3.30;1.20;;;;;;;23.62;44.72;102338.84;4954670;28;20901;-72
2022/07/02 09:23:22;;;;;;;4.97;1.40;;;;;;;23.93;42.25;102334.16;4954118;28;20232;-73
2022/07/02 09:25:51;;;;;;;2.40;1.17;;;;;;;24.10;43.45;102343.56;4953540;28;20229;-73
2022/07/02 09:28:18;;;;;;;2.95;1.30;;;;;;;24.11;43.08;102333.94;4952717;29;20197;-74
2022/07/02 09:30:44;;;;;;;3.22;0.90;;;;;;;24.28;42.97;102329.38;4953480;28;20663;-74
2022/07/02 09:33:29;;;;;;;2.83;0.90;;;;;;;23.96;42.29;102342.88;4968640;28;20635;-73
2022/07/02 09:35:55;;;;;;;3.15;1.33;;;;;;;24.54;40.35;102329.91;4953562;28;20862;-74
2022/07/02 09:38:21;;;;;;;1.77;1.17;;;;;;;25.02;41.93;102318.69;4953708;28;20209;-73
2022/07/02 09:40:52;;;;;;;1.60;1.10;;;;;;;24.58;41.45;102321.97;4953797;29;20271;-73
2022/07/02 09:43:28;;;;;;;1.98;1.05;;;;;;;24.08;40.55;102323.53;4952930;29;20224;-75
2022/07/02 09:45:57;;;;;;;2.05;0.90;;;;;;;24.55;40.67;102316.78;4953659;28;20189;-75
2022/07/02 09:48:23;;;;;;;4.32;1.20;;;;;;;24.28;39.68;102321.53;4953967;28;20204;-75
2022/07/02 09:50:49;;;;;;;2.23;1.20;;;;;;;23.92;42.13;102321.97;4955364;28;20212;-76
2022/07/02 09:53:15;;;;;;;1.73;0.87;;;;;;;24.32;40.27;102311.00;4953913;28;20945;-76
2022/07/02 09:55:46;;;;;;;2.38;1.10;;;;;;;25.01;42.58;102303.84;4953138;29;20197;-75
2022/07/02 09:58:11;;;;;;;2.53;0.98;;;;;;;24.19;39.51;102309.44;4950800;28;20292;-75
2022/07/02 10:00:44;;;;;;;4.88;1.20;;;;;;;24.85;40.89;102308.47;4985592;28;20228;-76
2022/07/02 10:03:10;;;;;;;4.00;1.10;;;;;;;24.06;40.26;102313.06;4986737;28;20205;-74
2022/07/02 10:05:35;;;;;;;4.03;0.98;;;;;;;24.30;41.13;102315.38;4956125;28;20272;-77
2022/07/02 10:08:04;;;;;;;2.10;0.90;;;;;;;24.82;40.39;102302.44;4957246;28;20213;-75
2022/07/02 10:10:38;;;;;;;3.40;1.02;;;;;;;25.01;40.72;102306.47;4952396;28;20204;-74
2022/07/02 10:13:10;;;;;;;3.30;1.00;;;;;;;24.80;40.23;102296.31;4954400;28;20181;-76
2022/07/02 10:15:39;;;;;;;4.78;1.35;;;;;;;25.69;39.71;102291.25;4970941;28;20240;-76
2022/07/02 10:18:05;;;;;;;3.15;1.10;;;;;;;26.07;38.24;102295.78;4951734;28;20240;-77
2022/07/02 10:20:32;;;;;;;4.45;1.20;;;;;;;25.42;37.16;102304.88;4951784;29;20852;-75
2022/07/02 10:22:59;;;;;;;1.50;0.90;;;;;;;25.49;38.05;102297.78;4952302;28;20752;-76
2022/07/02 10:25:25;;;;;;;2.13;1.00;;;;;;;25.12;37.16;102300.16;4952478;28;21020;-74
2022/07/02 10:28:00;;;;;;;2.95;0.90;;;;;;;25.16;37.95;102299.22;4951424;29;20212;-75
2022/07/02 10:30:31;;;;;;;3.97;0.95;;;;;;;25.23;37.36;102297.38;4952503;28;20283;-75
2022/07/02 10:33:07;;;;;;;3.85;1.00;;;;;;;24.68;40.26;102297.38;4954225;28;20192;-76
2022/07/02 10:35:34;;;;;;;3.50;1.05;;;;;;;25.09;39.30;102302.81;4951544;28;20188;-75
2022/07/02 10:38:00;;;;;;;3.17;1.00;;;;;;;24.38;39.03;102303.03;4953132;28;20213;-75
2022/07/02 10:40:27;;;;;;;3.73;1.30;;;;;;;23.68;39.96;102306.50;4952497;28;20196;-75
2022/07/02 10:42:53;;;;;;;3.53;1.23;;;;;;;23.75;39.99;102298.56;4952684;29;20216;-75
2022/07/02 10:45:22;;;;;;;2.37;1.10;;;;;;;24.45;39.15;102303.84;4947488;29;20188;-76
2022/07/02 10:48:05;;;;;;;2.07;0.90;;;;;;;24.31;37.74;102296.16;4964290;28;20209;-76
2022/07/02 10:50:39;;;;;;;4.03;0.93;;;;;;;23.96;39.17;102302.72;4952763;29;20589;-76
2022/07/02 10:53:19;;;;;;;1.47;0.90;;;;;;;23.52;39.06;102300.56;4953200;28;20196;-75
2022/07/02 10:55:53;;;;;;;4.07;1.10;;;;;;;24.85;39.33;102289.25;4953621;28;20196;-75
2022/07/02 10:58:23;;;;;;;2.90;1.00;;;;;;;24.59;38.26;102289.66;4952421;28;20185;-75
2022/07/02 11:00:49;;;;;;;1.92;0.98;;;;;;;24.42;40.20;102291.63;4952799;29;20188;-76
2022/07/02 11:03:18;;;;;;;3.07;1.00;;;;;;;23.79;38.94;102291.53;4966642;28;20201;-75
2022/07/02 11:06:01;;;;;;;2.10;1.20;;;;;;;24.43;37.61;102287.25;4983190;28;20177;-74
2022/07/02 11:08:43;;;;;;;2.95;0.90;;;;;;;24.53;37.68;102274.00;4951975;28;20596;-75
2022/07/02 11:11:11;;;;;;;1.70;1.00;;;;;;;24.71;38.60;102279.00;4952235;29;20240;-75
2022/07/02 11:13:59;;;;;;;4.13;1.00;;;;;;;25.42;38.02;102276.03;4950555;29;20230;-75
2022/07/02 11:16:27;;;;;;;1.67;0.93;;;;;;;25.39;37.56;102272.59;4952780;28;20256;-75
2022/07/02 11:18:55;;;;;;;2.30;0.80;;;;;;;26.41;37.21;102263.47;4952523;28;20193;-75
2022/07/02 11:21:22;;;;;;;2.22;0.80;;;;;;;25.10;37.18;102267.00;4950935;29;20185;-75
2022/07/02 11:23:48;;;;;;;2.33;1.50;;;;;;;25.08;38.49;102269.63;4953842;28;20201;-75